Laurence M. Gould — WCX7445 — position and weather

sailwx.info

Track history (hours):
 
Tides and Currents Weather Stations Pressure Air Temp Water Temp Dewpoint Dewpoint Depression Visibility Wind Speed Wind Dir Waves Ship Positions

Oceanographic research ship Laurence M. Gould (USA)

Detailed information on ship capabilities available from University of Delaware's Ocean Information Center.

Owner: Offshore Service Vessels LLC, GALLIANO, LA. More information available from US FCC via Universal Licensing System and Coast Guard Vessel Documentation Center.

Last reported at 2014-Dec-21 19:00 UTC. Time now 2014-Dec-21 20:06 UTC.
Position S 53°00' W 070°48'.

Type: Other ship. MMSI: 368138000.

Wind from 010 at 28 knots

Barometer 1004.3 mb
Air temperature 11.6 ° C
Water temperature 9.2 ° C

Date/timePositionNaut miles runAvg speedWind from/ knotsBaromVisibWave heightAir tempDewpointWater temp
2014-Dec-21 19:00S 53°00' W 070°48'0 0.0 010 / 281004.3 11.6 9.2
2014-Dec-21 17:00S 53°00' W 070°48'0 0.0 090 / 271004.1 11.0 9.2
2014-Dec-21 16:00S 53°00' W 070°48'0 0.0 350 / 251003.9 10.5 9.2
2014-Dec-21 15:00S 53°00' W 070°48'0 0.0 030 / 191004.1 9.8 9.2
2014-Dec-21 14:00S 53°00' W 070°48'0 0.0 070 / 141004.6 9.3 9.2
2014-Dec-21 12:00S 53°00' W 070°48'1212.4 270 / 181004.8 9.1 9.2
2014-Dec-21 11:00S 52°54' W 070°30'72 8.0 270 / 211005.4 7.0 9.2
2014-Dec-21 02:00S 52°12' W 068°54'13 6.3 230 / 311003.8 6.4 9.2
2014-Dec-21 00:00S 52°18' W 068°36'9 9.5 240 / 351000.8 7.7 9.2
2014-Dec-20 23:00S 52°24' W 068°24'7 7.3 250 / 32999.8 8.2 9.2
2014-Dec-20 22:00S 52°24' W 068°12'7 7.0 230 / 26998.9 8.5 9.2
2014-Dec-20 21:00S 52°30' W 068°06'9 9.4 230 / 23997.9 9.3 9.2
2014-Dec-20 20:00S 52°36' W 067°54'7 7.0 230 / 23996.8 9.5 9.2
2014-Dec-20 19:00S 52°42' W 067°48'4 3.6 230 / 24996.1 9.7 9.2
2014-Dec-20 18:00S 52°42' W 067°42'9 9.4 240 / 28995.0 9.2 9.5
2014-Dec-20 17:00S 52°48' W 067°30'7 7.0 170 / 14995.4 7.2 9.2
2014-Dec-20 16:00S 52°54' W 067°24'9 9.4 240 / 20994.0 8.6 9.2
2014-Dec-20 15:00S 53°00' W 067°12'7 7.0 230 / 18992.8 8.4 9.1
2014-Dec-20 14:00S 53°06' W 067°06'4 3.6 230 / 16991.9 7.6 9.2
2014-Dec-20 13:00S 53°06' W 067°00'9 9.4 220 / 19990.6 6.3 9.3
2014-Dec-20 12:00S 53°12' W 066°48'7 7.0 210 / 20989.3 6.9 9.4
2014-Dec-20 11:00S 53°18' W 066°42'9 9.3 210 / 18987.9 7.3 9.6
2014-Dec-20 10:00S 53°24' W 066°30'3913.0 210 / 16986.7 7.2 9.4
2014-Dec-20 07:00S 53°54' W 065°48'1212.2 320 / 13985.2 7.3 9.4
2014-Dec-20 06:00S 54°00' W 065°30'9 9.3 300 / 14984.9 6.9 9.3
2014-Dec-20 05:00S 54°06' W 065°18'1413.9 260 / 2984.7 6.7 9.1
2014-Dec-20 04:00S 54°18' W 065°06'2110.4 210 / 1984.3 6.3 8.9
2014-Dec-20 02:00S 54°36' W 064°48'1212.0 170 / 6983.4 5.4 9.0
2014-Dec-20 01:00S 54°48' W 064°48'1212.0 160 / 8982.6 4.7 8.9
2014-Dec-20 00:00S 55°00' W 064°48'1212.5 160 / 7982.0 5.1 7.1
2014-Dec-19 23:00S 55°12' W 064°42'1212.0 190 / 7981.5 5.1 6.7
2014-Dec-19 22:00S 55°24' W 064°42'1212.5 160 / 9980.8 5.8 6.1
2014-Dec-19 21:00S 55°36' W 064°36'6 6.0 160 / 7980.2 4.9 6.6
2014-Dec-19 20:00S 55°42' W 064°36'1212.5 160 / 11979.4 5.4 6.9
2014-Dec-19 19:00S 55°54' W 064°30'7312.2 150 / 12978.7 4.8 6.9
2014-Dec-19 13:00S 57°06' W 064°06'1212.0 110 / 10975.7 2.8 6.6
2014-Dec-19 12:00S 57°18' W 064°06'18 9.1 110 / 13975.3 2.8 6.6
2014-Dec-19 10:00S 57°36' W 064°00'1212.4 120 / 14974.6 2.5 6.5
2014-Dec-19 09:00S 57°48' W 063°54'1212.4 110 / 13974.3 2.4 6.5
2014-Dec-19 08:00S 58°00' W 063°48'1212.0 120 / 14974.1 1.9 5.4
2014-Dec-19 07:00S 58°12' W 063°48'1212.4 130 / 14974.0 1.2 5.2
2014-Dec-19 06:00S 58°24' W 063°42'2412.1 120 / 15974.2 0.5 2.8
2014-Dec-19 04:00S 58°48' W 063°36'6110.2 090 / 12974.9 0.3 2.5
2014-Dec-18 22:00S 59°48' W 063°12'4210.6 090 / 11975.3 -0.4 1.3
2014-Dec-18 18:00S 60°30' W 063°00'1212.4 070 / 10976.2 -1.0 1.3
2014-Dec-18 17:00S 60°42' W 062°54'1212.4 080 / 9976.4 -1.0 1.5
2014-Dec-18 16:00S 60°54' W 062°48'1212.0 070 / 7977.0 -0.8 1.2
2014-Dec-18 15:00S 61°06' W 062°48'18 9.1 070 / 8977.4 -1.2 1.1
2014-Dec-18 13:00S 61°24' W 062°42'1212.3 040 / 3978.1 0.6 1.0
2014-Dec-18 12:00S 61°36' W 062°36'11311.3 978.4 1.1 1.1
2014-Dec-18 02:00S 63°24' W 061°24'18 9.0 260 / 11978.9 -0.3 1.9
2014-Dec-18 00:00S 63°42' W 061°24'4711.7 280 / 6979.1 1.4 2.0
2014-Dec-17 20:00S 64°24' W 062°12'   260 / 12979.2 3.8 1.2
2014-Dec-15 13:00S 64°42' W 063°54'5 5.1 340 / 15981.2 -0.0 0.6
2014-Dec-15 12:00S 64°42' W 064°06'3 2.6 350 / 12981.1 -0.0 0.7
2014-Dec-15 11:00S 64°42' W 064°12'5 5.1 340 / 8980.5 0.1 0.6
2014-Dec-15 10:00S 64°42' W 064°24'10 9.8 340 / 7979.7 0.6 0.1
2014-Dec-15 09:00S 64°36' W 064°42'18 9.0 290 / 11978.9 0.1 0.6
2014-Dec-15 07:00S 64°18' W 064°42'20 9.8 300 / 11977.8 -0.0 0.2
2014-Dec-15 05:00S 64°00' W 064°24'2512.6 310 / 11977.5 0.1 0.3
2014-Dec-15 03:00S 63°36' W 064°06'8 8.0 300 / 12977.9 0.2 0.6
2014-Dec-15 02:00S 63°30' W 063°54'1313.1 310 / 13978.2 0.1 0.6
2014-Dec-15 01:00S 63°18' W 063°42'1010.1 340 / 10978.4 -0.0 0.7
2014-Dec-15 00:00S 63°12' W 063°24'1010.1 330 / 10979.0 -0.0 0.7
2014-Dec-14 23:00S 63°06' W 063°06'3 2.7 310 / 8979.3 0.3 0.9
2014-Dec-14 22:00S 63°06' W 063°00'7 6.6 300 / 5979.5 0.3 0.8
2014-Dec-14 21:00S 63°00' W 063°06'7 6.6 170 / 8979.6 1.1 0.8
2014-Dec-14 20:00S 62°54' W 063°12'3 2.7 240 / 5979.4 1.1 0.8
2014-Dec-14 19:00S 62°54' W 063°18'0 0.0 270 / 10979.4 0.8 0.8
2014-Dec-14 18:00S 62°54' W 063°18'7 6.6 270 / 10979.2 1.1 0.7
2014-Dec-14 17:00S 62°48' W 063°24'0 0.0 210 / 13979.0 1.8 0.5
2014-Dec-14 16:00S 62°48' W 063°24'0 0.0 160 / 13979.2 2.2 0.6
2014-Dec-14 15:00S 62°48' W 063°24'3 2.7 140 / 11979.3 1.3 0.5
2014-Dec-14 14:00S 62°48' W 063°30'0 0.0 260 / 10979.7 0.3 0.4
2014-Dec-14 13:00S 62°48' W 063°30'0 0.0 210 / 9980.4 -0.0 0.5
2014-Dec-14 12:00S 62°48' W 063°30'6 6.0 300 / 10981.3 -0.1 0.5
2014-Dec-14 11:00S 62°42' W 063°30'0 0.0 330 / 9982.0 -0.2 0.6
2014-Dec-14 10:00S 62°42' W 063°30'3 2.8 360 / 8982.7 -0.3 0.6
2014-Dec-14 09:00S 62°42' W 063°36'0 0.0 240 / 7983.5 -0.1 0.7
2014-Dec-14 08:00S 62°42' W 063°36'0 0.0 250 / 7984.0 -0.1 0.6
2014-Dec-14 07:00S 62°42' W 063°36'3 2.8 320 / 7984.4 0.7 0.6
2014-Dec-14 06:00S 62°42' W 063°42'0 0.0 090 / 7984.9 0.1 0.7
2014-Dec-14 05:00S 62°42' W 063°42'7 2.2 200 / 6985.1 -0.2 0.5
2014-Dec-14 02:00S 62°36' W 063°48'0 0.0 100 / 9986.0 0.4 0.6
2014-Dec-14 01:00S 62°36' W 063°48'88 3.5 140 / 7985.9 0.2 0.7
2014-Dec-13 00:00S 63°00' W 060°42'1110.9 230 / 31979.0 -0.2 1.1
2014-Dec-12 23:00S 63°00' W 060°18'8 8.2 230 / 26978.1 0.5 0.9
2014-Dec-12 22:00S 63°00' W 060°00'8 8.1 230 / 21977.1 3.1 0.9
2014-Dec-12 21:00S 62°54' W 059°48'1313.2 240 / 26976.6 2.5 0.9
2014-Dec-12 20:00S 62°42' W 059°36'1010.2 230 / 26976.1 2.4 1.0
2014-Dec-12 19:00S 62°36' W 059°18'8 8.3 240 / 26975.1 2.2 0.8
2014-Dec-12 18:00S 62°36' W 059°00'39 9.7 230 / 29973.9 1.7 0.7
2014-Dec-12 14:00S 62°12' W 057°54'6 1.0 170 / 24971.7 2.5 0.7
2014-Dec-12 08:00S 62°06' W 057°54'3 0.9 130 / 26967.8 0.7 0.6
2014-Dec-12 05:00S 62°06' W 058°00'0 0.0 170 / 14966.0 -0.0 0.6
2014-Dec-12 03:00S 62°06' W 058°00'0 0.0 170 / 4965.1 -0.6 0.7
2014-Dec-12 01:00S 62°06' W 058°00'7 6.6 210 / 14963.2 -0.5 0.7
2014-Dec-12 00:00S 62°00' W 057°54'8 8.5 230 / 12962.5 0.8 0.7
2014-Dec-11 23:00S 62°00' W 057°36'   240 / 18962.0 1.2 0.7
Track history (hours):
 
Tides and Currents Weather Stations Pressure Air Temp Water Temp Dewpoint Dewpoint Depression Visibility Wind Speed Wind Dir Waves Ship Positions

Oceanographic research ship Laurence M. Gould (USA)

Detailed information on ship capabilities available from University of Delaware's Ocean Information Center.

Owner: Offshore Service Vessels LLC, GALLIANO, LA. More information available from US FCC via Universal Licensing System and Coast Guard Vessel Documentation Center.

Last reported at 2014-Dec-21 19:00 UTC. Time now 2014-Dec-21 20:07 UTC.
Position S 53°00' W 070°48'.

Type: Other ship. MMSI: 368138000.

Wind from 010 at 28 knots

Barometer 1004.3 mb
Air temperature 11.6 ° C
Water temperature 9.2 ° C

Date/timePositionNaut miles runAvg speedWind from/ knotsBaromVisibWave heightAir tempDewpointWater temp
2014-Dec-21 19:00S 53°00' W 070°48'0 0.0 010 / 281004.3 11.6 9.2
2014-Dec-21 17:00S 53°00' W 070°48'0 0.0 090 / 271004.1 11.0 9.2
2014-Dec-21 16:00S 53°00' W 070°48'0 0.0 350 / 251003.9 10.5 9.2
2014-Dec-21 15:00S 53°00' W 070°48'0 0.0 030 / 191004.1 9.8 9.2
2014-Dec-21 14:00S 53°00' W 070°48'0 0.0 070 / 141004.6 9.3 9.2
2014-Dec-21 12:00S 53°00' W 070°48'1212.4 270 / 181004.8 9.1 9.2
2014-Dec-21 11:00S 52°54' W 070°30'72 8.0 270 / 211005.4 7.0 9.2
2014-Dec-21 02:00S 52°12' W 068°54'13 6.3 230 / 311003.8 6.4 9.2
2014-Dec-21 00:00S 52°18' W 068°36'9 9.5 240 / 351000.8 7.7 9.2
2014-Dec-20 23:00S 52°24' W 068°24'7 7.3 250 / 32999.8 8.2 9.2
2014-Dec-20 22:00S 52°24' W 068°12'7 7.0 230 / 26998.9 8.5 9.2
2014-Dec-20 21:00S 52°30' W 068°06'9 9.4 230 / 23997.9 9.3 9.2
2014-Dec-20 20:00S 52°36' W 067°54'7 7.0 230 / 23996.8 9.5 9.2
2014-Dec-20 19:00S 52°42' W 067°48'4 3.6 230 / 24996.1 9.7 9.2
2014-Dec-20 18:00S 52°42' W 067°42'9 9.4 240 / 28995.0 9.2 9.5
2014-Dec-20 17:00S 52°48' W 067°30'7 7.0 170 / 14995.4 7.2 9.2
2014-Dec-20 16:00S 52°54' W 067°24'9 9.4 240 / 20994.0 8.6 9.2
2014-Dec-20 15:00S 53°00' W 067°12'7 7.0 230 / 18992.8 8.4 9.1
2014-Dec-20 14:00S 53°06' W 067°06'4 3.6 230 / 16991.9 7.6 9.2
2014-Dec-20 13:00S 53°06' W 067°00'9 9.4 220 / 19990.6 6.3 9.3
2014-Dec-20 12:00S 53°12' W 066°48'7 7.0 210 / 20989.3 6.9 9.4
2014-Dec-20 11:00S 53°18' W 066°42'9 9.3 210 / 18987.9 7.3 9.6
2014-Dec-20 10:00S 53°24' W 066°30'3913.0 210 / 16986.7 7.2 9.4
2014-Dec-20 07:00S 53°54' W 065°48'1212.2 320 / 13985.2 7.3 9.4
2014-Dec-20 06:00S 54°00' W 065°30'9 9.3 300 / 14984.9 6.9 9.3
2014-Dec-20 05:00S 54°06' W 065°18'1413.9 260 / 2984.7 6.7 9.1
2014-Dec-20 04:00S 54°18' W 065°06'2110.4 210 / 1984.3 6.3 8.9
2014-Dec-20 02:00S 54°36' W 064°48'1212.0 170 / 6983.4 5.4 9.0
2014-Dec-20 01:00S 54°48' W 064°48'1212.0 160 / 8982.6 4.7 8.9
2014-Dec-20 00:00S 55°00' W 064°48'1212.5 160 / 7982.0 5.1 7.1
2014-Dec-19 23:00S 55°12' W 064°42'1212.0 190 / 7981.5 5.1 6.7
2014-Dec-19 22:00S 55°24' W 064°42'1212.5 160 / 9980.8 5.8 6.1
2014-Dec-19 21:00S 55°36' W 064°36'6 6.0 160 / 7980.2 4.9 6.6
2014-Dec-19 20:00S 55°42' W 064°36'1212.5 160 / 11979.4 5.4 6.9
2014-Dec-19 19:00S 55°54' W 064°30'7312.2 150 / 12978.7 4.8 6.9
2014-Dec-19 13:00S 57°06' W 064°06'1212.0 110 / 10975.7 2.8 6.6
2014-Dec-19 12:00S 57°18' W 064°06'18 9.1 110 / 13975.3 2.8 6.6
2014-Dec-19 10:00S 57°36' W 064°00'1212.4 120 / 14974.6 2.5 6.5
2014-Dec-19 09:00S 57°48' W 063°54'1212.4 110 / 13974.3 2.4 6.5
2014-Dec-19 08:00S 58°00' W 063°48'1212.0 120 / 14974.1 1.9 5.4
2014-Dec-19 07:00S 58°12' W 063°48'1212.4 130 / 14974.0 1.2 5.2
2014-Dec-19 06:00S 58°24' W 063°42'2412.1 120 / 15974.2 0.5 2.8
2014-Dec-19 04:00S 58°48' W 063°36'6110.2 090 / 12974.9 0.3 2.5
2014-Dec-18 22:00S 59°48' W 063°12'4210.6 090 / 11975.3 -0.4 1.3
2014-Dec-18 18:00S 60°30' W 063°00'1212.4 070 / 10976.2 -1.0 1.3
2014-Dec-18 17:00S 60°42' W 062°54'1212.4 080 / 9976.4 -1.0 1.5
2014-Dec-18 16:00S 60°54' W 062°48'1212.0 070 / 7977.0 -0.8 1.2
2014-Dec-18 15:00S 61°06' W 062°48'18 9.1 070 / 8977.4 -1.2 1.1
2014-Dec-18 13:00S 61°24' W 062°42'1212.3 040 / 3978.1 0.6 1.0
2014-Dec-18 12:00S 61°36' W 062°36'11311.3 978.4 1.1 1.1
2014-Dec-18 02:00S 63°24' W 061°24'18 9.0 260 / 11978.9 -0.3 1.9
2014-Dec-18 00:00S 63°42' W 061°24'4711.7 280 / 6979.1 1.4 2.0
2014-Dec-17 20:00S 64°24' W 062°12'   260 / 12979.2 3.8 1.2
2014-Dec-15 13:00S 64°42' W 063°54'5 5.1 340 / 15981.2 -0.0 0.6
2014-Dec-15 12:00S 64°42' W 064°06'3 2.6 350 / 12981.1 -0.0 0.7
2014-Dec-15 11:00S 64°42' W 064°12'5 5.1 340 / 8980.5 0.1 0.6
2014-Dec-15 10:00S 64°42' W 064°24'10 9.8 340 / 7979.7 0.6 0.1
2014-Dec-15 09:00S 64°36' W 064°42'18 9.0 290 / 11978.9 0.1 0.6
2014-Dec-15 07:00S 64°18' W 064°42'20 9.8 300 / 11977.8 -0.0 0.2
2014-Dec-15 05:00S 64°00' W 064°24'2512.6 310 / 11977.5 0.1 0.3
2014-Dec-15 03:00S 63°36' W 064°06'8 8.0 300 / 12977.9 0.2 0.6
2014-Dec-15 02:00S 63°30' W 063°54'1313.1 310 / 13978.2 0.1 0.6
2014-Dec-15 01:00S 63°18' W 063°42'1010.1 340 / 10978.4 -0.0 0.7
2014-Dec-15 00:00S 63°12' W 063°24'1010.1 330 / 10979.0 -0.0 0.7
2014-Dec-14 23:00S 63°06' W 063°06'3 2.7 310 / 8979.3 0.3 0.9
2014-Dec-14 22:00S 63°06' W 063°00'7 6.6 300 / 5979.5 0.3 0.8
2014-Dec-14 21:00S 63°00' W 063°06'7 6.6 170 / 8979.6 1.1 0.8
2014-Dec-14 20:00S 62°54' W 063°12'3 2.7 240 / 5979.4 1.1 0.8
2014-Dec-14 19:00S 62°54' W 063°18'0 0.0 270 / 10979.4 0.8 0.8
2014-Dec-14 18:00S 62°54' W 063°18'7 6.6 270 / 10979.2 1.1 0.7
2014-Dec-14 17:00S 62°48' W 063°24'0 0.0 210 / 13979.0 1.8 0.5
2014-Dec-14 16:00S 62°48' W 063°24'0 0.0 160 / 13979.2 2.2 0.6
2014-Dec-14 15:00S 62°48' W 063°24'3 2.7 140 / 11979.3 1.3 0.5
2014-Dec-14 14:00S 62°48' W 063°30'0 0.0 260 / 10979.7 0.3 0.4
2014-Dec-14 13:00S 62°48' W 063°30'0 0.0 210 / 9980.4 -0.0 0.5
2014-Dec-14 12:00S 62°48' W 063°30'6 6.0 300 / 10981.3 -0.1 0.5
2014-Dec-14 11:00S 62°42' W 063°30'0 0.0 330 / 9982.0 -0.2 0.6
2014-Dec-14 10:00S 62°42' W 063°30'3 2.8 360 / 8982.7 -0.3 0.6
2014-Dec-14 09:00S 62°42' W 063°36'0 0.0 240 / 7983.5 -0.1 0.7
2014-Dec-14 08:00S 62°42' W 063°36'0 0.0 250 / 7984.0 -0.1 0.6
2014-Dec-14 07:00S 62°42' W 063°36'3 2.8 320 / 7984.4 0.7 0.6
2014-Dec-14 06:00S 62°42' W 063°42'0 0.0 090 / 7984.9 0.1 0.7
2014-Dec-14 05:00S 62°42' W 063°42'7 2.2 200 / 6985.1 -0.2 0.5
2014-Dec-14 02:00S 62°36' W 063°48'0 0.0 100 / 9986.0 0.4 0.6
2014-Dec-14 01:00S 62°36' W 063°48'88 3.5 140 / 7985.9 0.2 0.7
2014-Dec-13 00:00S 63°00' W 060°42'1110.9 230 / 31979.0 -0.2 1.1
2014-Dec-12 23:00S 63°00' W 060°18'8 8.2 230 / 26978.1 0.5 0.9
2014-Dec-12 22:00S 63°00' W 060°00'8 8.1 230 / 21977.1 3.1 0.9
2014-Dec-12 21:00S 62°54' W 059°48'1313.2 240 / 26976.6 2.5 0.9
2014-Dec-12 20:00S 62°42' W 059°36'1010.2 230 / 26976.1 2.4 1.0
2014-Dec-12 19:00S 62°36' W 059°18'8 8.3 240 / 26975.1 2.2 0.8
2014-Dec-12 18:00S 62°36' W 059°00'39 9.7 230 / 29973.9 1.7 0.7
2014-Dec-12 14:00S 62°12' W 057°54'6 1.0 170 / 24971.7 2.5 0.7
2014-Dec-12 08:00S 62°06' W 057°54'3 0.9 130 / 26967.8 0.7 0.6
2014-Dec-12 05:00S 62°06' W 058°00'0 0.0 170 / 14966.0 -0.0 0.6
2014-Dec-12 03:00S 62°06' W 058°00'0 0.0 170 / 4965.1 -0.6 0.7
2014-Dec-12 01:00S 62°06' W 058°00'7 6.6 210 / 14963.2 -0.5 0.7
2014-Dec-12 00:00S 62°00' W 057°54'8 8.5 230 / 12962.5 0.8 0.7
2014-Dec-11 23:00S 62°00' W 057°36'   240 / 18962.0 1.2 0.7

Dump ship's entire track history